Terminal Aerodrome Forecast
Issued by NWS North Platte, NE

Home | Current Version | Previous Version | Graphics & Text | Print | Product List | Glossary On
Versions: 1 2 3 4 5 6 7 8 9 10 11 12 13 14 15 16 17 18 19 20 21 22
000
FTUS43 KLBF 211134 CCA
TAFVTN
TAF COR
KVTN 211134Z 2112/2212 06009KT 2SM -SN BR OVC003
     FM211230 07009KT P6SM -SN OVC015
     FM211700 10010KT P6SM OVC030
     FM220300 12011KT P6SM OVC050
     FM220700 14013G20KT 5SM -SN OVC025
      TEMPO 2207/2211 2SM -SNPL OVC015=

USA.gov is the U.S. government's official web portal to all federal, state and local government web resources and services.